Historique des mesures à Cassis (13260), France
Quotidien Résumé Fevrier 20, 2018 Unités:  Métrique    US   Métrique/US
« Précédent (Jour)
Suivant (Jour) »
Quotidien Hebdomadaire Mensuel Annuel Période au choix
  Maximum: Minimum: Moyenne:
Température: TemperatureC °C 4.8 °C 8 °C
Point de rosée: DewpointC °C -4.0 °C -2.1 °C
Humidité: Humidity % 41 % 46 %
Vitesse du vent: 0 km/h 0 km/h 11.4 km/h
Rafales: 0 km/h - -
Vent:- - West
Pression: PressurehPa hPa 1002.3 hPa -
Précipitations: 0.0 mm    
Historical Graphs
 
 
Mesures pour : Fevrier 20, 2018
Heure Temperature Point de rosée Pression Vent Vitesse du vent Rafales Humidité Pluie (par heure) Conditions
TemperatureC °C DewpointC °C PressurehPa hPa Calm     Humidity % HourlyPrecipMM mm SoftwareType W/m2
00:12 6.9 °C -4.0 °C 1007.7 hPa NNW 4.7 km/h 8 km/h 46 % 0.0 mm open2300-1.11 W/m2
01:12 6.5 °C -3.8 °C 1007.3 hPa WNW 20.9 km/h 23.8 km/h 48 % 0.0 mm open2300-1.11 W/m2
02:12 5.7 °C -3.7 °C 1006.7 hPa WNW 11.6 km/h 11.6 km/h 51 % 0.0 mm open2300-1.11 W/m2
04:12 5.8 °C -3.3 °C 1006.0 hPa WNW 2.3 km/h 6.9 km/h 52 % 0.0 mm open2300-1.11 W/m2
05:12 5.5 °C -3.4 °C 1005.6 hPa NNW 2.9 km/h 2.9 km/h 53 % 0.0 mm open2300-1.11 W/m2
06:12 5.3 °C -3.3 °C 1005.3 hPa Calm     54 % 0.0 mm open2300-1.11 W/m2
07:12 4.8 °C -3.1 °C 1005.0 hPa NNE 4.2 km/h 4.7 km/h 57 % 0.0 mm open2300-1.11 W/m2
08:12 4.9 °C -3.2 °C 1005.3 hPa ENE 2.3 km/h 2.3 km/h 56 % 0.0 mm open2300-1.11 W/m2
09:12 6.3 °C -2.3 °C 1005.3 hPa Calm     54 % 0.0 mm open2300-1.11 W/m2
10:12 8.3 °C -2.4 °C 1005.0 hPa WNW 10.3 km/h 11.6 km/h 47 % 0.0 mm open2300-1.11 W/m2
11:12 9.5 °C -2.6 °C 1004.6 hPa WNW 26.7 km/h 26.7 km/h 43 % 0.0 mm open2300-1.11 W/m2
12:12 11.1 °C -1.4 °C 1003.9 hPa NW 15 km/h 15 km/h 42 % 0.0 mm open2300-1.11 W/m2
13:12 12.1 °C -0.8 °C 1003.6 hPa WNW 17.9 km/h 17.9 km/h 41 % 0.0 mm open2300-1.11 W/m2
14:12 12.4 °C 0.1 °C 1002.9 hPa West 18.7 km/h 19.6 km/h 43 % 0.0 mm open2300-1.11 W/m2
15:12 12.1 °C 0.4 °C 1002.3 hPa West 24.8 km/h 24.8 km/h 45 % 0.0 mm open2300-1.11 W/m2
16:12 11.5 °C -0.4 °C 1002.6 hPa West 5.6 km/h 15 km/h 44 % 0.0 mm open2300-1.11 W/m2
17:12 11.6 °C -0.6 °C 1002.6 hPa WNW 14 km/h 14 km/h 43 % 0.0 mm open2300-1.11 W/m2
18:12 10.1 °C -1.1 °C 1002.9 hPa WNW 14 km/h 14 km/h 46 % 0.0 mm open2300-1.11 W/m2
19:12 9.4 °C -1.7 °C 1002.9 hPa West 20.9 km/h 23 km/h 46 % 0.0 mm open2300-1.11 W/m2
20:12 8.7 °C -2.7 °C 1002.9 hPa NW 19.6 km/h 50.5 km/h 45 % 0.0 mm open2300-1.11 W/m2
21:12 8.4 °C -2.7 °C 1002.9 hPa WNW 15.6 km/h 23.8 km/h 46 % 0.0 mm open2300-1.11 W/m2
23:12 7.5 °C -2.6 °C 1003.6 hPa NNW 9.3 km/h 9.3 km/h 49 % 0.0 mm open2300-1.11 W/m2
Observations météo à CASSIS
WU-History script by Weather Underground - 1 mb